地図

経路データ

SID SEASON NUMBER BASIN SUBBASIN NAME ISO_TIME NATURE LAT LON WMO_WIND WMO_PRES WMO_AGENCY TRACK_TYPE DIST2LAND LANDFALL IFLAG USA_AGENCY USA_ATCF_ID USA_LAT USA_LON USA_RECORD USA_STATUS USA_WIND USA_PRES USA_SSHS USA_R34_NE USA_R34_SE USA_R34_SW USA_R34_NW USA_R50_NE USA_R50_SE USA_R50_SW USA_R50_NW USA_R64_NE USA_R64_SE USA_R64_SW USA_R64_NW USA_POCI USA_ROCI USA_RMW USA_EYE TOKYO_LAT TOKYO_LON TOKYO_GRADE TOKYO_WIND TOKYO_PRES TOKYO_R50_DIR TOKYO_R50_LONG TOKYO_R50_SHORT TOKYO_R30_DIR TOKYO_R30_LONG TOKYO_R30_SHORT TOKYO_LAND CMA_LAT CMA_LON CMA_CAT CMA_WIND CMA_PRES HKO_LAT HKO_LON HKO_CAT HKO_WIND HKO_PRES NEWDELHI_LAT NEWDELHI_LON NEWDELHI_GRADE NEWDELHI_WIND NEWDELHI_PRES NEWDELHI_CI NEWDELHI_DP NEWDELHI_POCI REUNION_LAT REUNION_LON REUNION_TYPE REUNION_WIND REUNION_PRES REUNION_TNUM REUNION_CI REUNION_RMW REUNION_R34_NE REUNION_R34_SE REUNION_R34_SW REUNION_R34_NW REUNION_R50_NE REUNION_R50_SE REUNION_R50_SW REUNION_R50_NW REUNION_R64_NE REUNION_R64_SE REUNION_R64_SW REUNION_R64_NW BOM_LAT BOM_LON BOM_TYPE BOM_WIND BOM_PRES BOM_TNUM BOM_CI BOM_RMW BOM_R34_NE BOM_R34_SE BOM_R34_SW BOM_R34_NW BOM_R50_NE BOM_R50_SE BOM_R50_SW BOM_R50_NW BOM_R64_NE BOM_R64_SE BOM_R64_SW BOM_R64_NW BOM_ROCI BOM_POCI BOM_EYE BOM_POS_METHOD BOM_PRES_METHOD NADI_LAT NADI_LON NADI_CAT NADI_WIND NADI_PRES WELLINGTON_LAT WELLINGTON_LON WELLINGTON_WIND WELLINGTON_PRES DS824_LAT DS824_LON DS824_STAGE DS824_WIND DS824_PRES TD9636_LAT TD9636_LON TD9636_STAGE TD9636_WIND TD9636_PRES TD9635_LAT TD9635_LON TD9635_WIND TD9635_PRES TD9635_ROCI NEUMANN_LAT NEUMANN_LON NEUMANN_CLASS NEUMANN_WIND NEUMANN_PRES MLC_LAT MLC_LON MLC_CLASS MLC_WIND MLC_PRES USA_GUST BOM_GUST BOM_GUST_PER REUNION_GUST REUNION_GUST_PER USA_SEAHGT USA_SEARAD_NE USA_SEARAD_SE USA_SEARAD_SW USA_SEARAD_NW STORM_SPEED STORM_DIR
1946193N13143 1946 38 WP MM INGRID 1946-07-12 00:00:00 TS 12.6000 142.500 main 1660 1657 O________OOO__ jtwc_wp WP061946 12.6000 142.500 40 0 12.6000 142.500 TC 40 12.6000 142.500 2 40 12.6000 142.500 40 995 300 11 290
1946193N13143 1946 38 WP MM INGRID 1946-07-12 03:00:00 TS 12.7970 141.953 main 1665 1654 P________PPP__ WP061946 12.8052 141.958 42 0 12.8052 141.958 TC 42 12.7723 141.938 2 43 12.8052 141.958 42 993 300 12 290
1946193N13143 1946 38 WP MM INGRID 1946-07-12 06:00:00 TS 12.9888 141.392 main 1661 1650 O________OPO__ jtwc_wp WP061946 13.0000 141.400 45 0 13.0000 141.400 TC 45 12.9553 141.370 2 47 13.0000 141.400 45 992 300 12 289
1946193N13143 1946 38 WP MM INGRID 1946-07-12 09:00:00 TS 13.1788 140.809 main 1650 1588 P________PPP__ WP061946 13.1849 140.815 50 0 13.1849 140.815 TC 50 13.1606 140.792 2 51 13.1849 140.815 50 990 270 12 290
1946193N13143 1946 38 WP MM INGRID 1946-07-12 12:00:00 TS 13.4000 140.200 main 1588 1529 O________OOO__ jtwc_wp WP061946 13.4000 140.200 55 0 13.4000 140.200 TC 55 13.4000 140.200 2 55 13.4000 140.200 55 988 240 13 293
1946193N13143 1946 38 WP MM INGRID 1946-07-12 15:00:00 TS 13.6783 139.580 main 1529 1461 P________PPP__ WP061946 13.6772 139.580 60 0 13.6772 139.580 TC 60 13.6818 139.582 2 60 13.6772 139.580 60 985 240 14 295
1946193N13143 1946 38 WP MM INGRID 1946-07-12 18:00:00 TS 14.0000 138.900 main 1461 1395 O________OOO__ jtwc_wp WP061946 14.0000 138.900 65 1 14.0000 138.900 TC 65 14.0000 138.900 3 65 14.0000 138.900 65 983 240 16 296
1946193N13143 1946 38 WP MM INGRID 1946-07-12 21:00:00 TS 14.3629 138.111 main 1386 1306 P________PPP__ WP061946 14.3651 138.108 70 1 14.3651 138.108 TC 70 14.3565 138.122 3 70 14.3651 138.108 70 980 300 17 294
1946193N13143 1946 38 WP MM INGRID 1946-07-13 00:00:00 TS 14.7000 137.300 main 1306 1237 O________OOO__ jtwc_wp WP061946 14.7000 137.300 75 1 14.7000 137.300 TC 75 14.7000 137.300 4 75 14.7000 137.300 75 977 360 16 291
1946193N13143 1946 38 WP MM INGRID 1946-07-13 03:00:00 TS 14.9328 136.579 main 1237 1170 P________PPP__ WP061946 14.9219 136.607 80 1 14.9219 136.607 TC 80 14.9654 136.494 4 78 14.9219 136.607 80 974 390 15 287
1946193N13143 1946 38 WP MM INGRID 1946-07-13 06:00:00 TS 15.1187 135.850 main 1159 1093 O________OPO__ jtwc_wp WP061946 15.1000 135.900 85 2 15.1000 135.900 TC 85 15.1748 135.698 4 82 15.1000 135.900 85 971 420 16 284
1946193N13143 1946 38 WP MM INGRID 1946-07-13 09:00:00 TS 15.3119 135.014 main 1083 1009 P________PPP__ WP061946 15.3002 135.042 87 2 15.3002 135.042 TC 87 15.3467 134.928 4 86 15.3002 135.042 87 969 420 16 283
1946193N13143 1946 38 WP MM INGRID 1946-07-13 12:00:00 TS 15.5000 134.200 main 1009 958 O________OOO__ jtwc_wp WP061946 15.5000 134.200 90 2 15.5000 134.200 TC 90 15.5000 134.200 4 90 15.5000 134.200 90 967 420 15 285
1946193N13143 1946 38 WP MM INGRID 1946-07-13 15:00:00 TS 15.7027 133.518 main 948 899 P________PPP__ WP061946 15.7146 133.512 90 2 15.7146 133.512 TC 90 15.6671 133.535 4 90 15.7146 133.512 90 966 420 13 287
1946193N13143 1946 38 WP MM INGRID 1946-07-13 18:00:00 TS 15.8802 132.903 main 899 847 O________OPO__ jtwc_wp WP061946 15.9000 132.900 90 2 15.9000 132.900 TC 90 15.8208 132.912 4 90 15.9000 132.900 90 966 420 12 284
1946193N13143 1946 38 WP MM INGRID 1946-07-13 21:00:00 TS 15.9964 132.307 main 847 798 P________PPP__ WP061946 16.0071 132.307 90 2 16.0071 132.307 TC 90 15.9641 132.307 4 90 16.0071 132.307 90 965 420 12 281
1946193N13143 1946 38 WP MM INGRID 1946-07-14 00:00:00 TS 16.1000 131.700 main 798 743 O________OOO__ jtwc_wp WP061946 16.1000 131.700 90 2 16.1000 131.700 TC 90 16.1000 131.700 4 90 16.1000 131.700 90 965 420 13 281
1946193N13143 1946 38 WP MM INGRID 1946-07-14 03:00:00 TS 16.2486 131.007 main 743 702 P________PPP__ WP061946 16.2501 131.000 92 2 16.2501 131.000 TC 92 16.2444 131.029 4 92 16.2501 131.000 92 964 420 14 283
1946193N13143 1946 38 WP MM INGRID 1946-07-14 06:00:00 TS 16.3951 130.314 main 692 639 O________OPO__ jtwc_wp WP061946 16.4000 130.300 95 2 16.4000 130.300 TC 95 16.3802 130.355 4 95 16.4000 130.300 95 964 420 13 282
1946193N13143 1946 38 WP MM INGRID 1946-07-14 09:00:00 TS 16.5113 129.678 main 639 587 P________PPP__ WP061946 16.5148 129.670 97 3 16.5148 129.670 TC 97 16.5008 129.704 4 97 16.5148 129.670 97 962 450 12 280
1946193N13143 1946 38 WP MM INGRID 1946-07-14 12:00:00 TS 16.6000 129.100 main 587 548 O________OOO__ jtwc_wp WP061946 16.6000 129.100 100 3 16.6000 129.100 TC 100 16.6000 129.100 4 100 16.6000 129.100 100 961 480 11 278
1946193N13143 1946 38 WP MM INGRID 1946-07-14 15:00:00 TS 16.6606 128.579 main 548 505 P________PPP__ WP061946 16.6573 128.577 100 3 16.6573 128.577 TC 100 16.6704 128.582 4 105 16.6573 128.577 100 957 450 10 276
1946193N13143 1946 38 WP MM INGRID 1946-07-14 18:00:00 TS 16.7053 128.103 main 505 472 O________OPO__ jtwc_wp WP061946 16.7000 128.100 100 3 16.7000 128.100 TC 100 16.7210 128.112 4 110 16.7000 128.100 100 953 420 9 276
1946193N13143 1946 38 WP MM INGRID 1946-07-14 21:00:00 TS 16.7526 127.653 main 480 441 P________PPP__ WP061946 16.7498 127.650 110 3 16.7498 127.650 TC 110 16.7612 127.661 4 115 16.7498 127.650 110 948 420 9 276
1946193N13143 1946 38 WP MM INGRID 1946-07-15 00:00:00 TS 16.8000 127.200 main 441 405 O________OOO__ jtwc_wp WP061946 16.8000 127.200 120 4 16.8000 127.200 TC 120 16.8000 127.200 4 120 16.8000 127.200 120 944 420 9 276
1946193N13143 1946 38 WP MM INGRID 1946-07-15 03:00:00 TS 16.8499 126.706 main 405 383 P________PPP__ WP061946 16.8499 126.715 110 3 16.8499 126.715 TC 110 16.8500 126.677 4 115 16.8499 126.715 110 945 420 10 276
1946193N13143 1946 38 WP MM INGRID 1946-07-15 06:00:00 TS 16.9000 126.186 main 383 340 O________OPO__ jtwc_wp WP061946 16.9000 126.200 100 3 16.9000 126.200 TC 100 16.9000 126.142 4 110 16.9000 126.200 100 947 420 10 276
1946193N13143 1946 38 WP MM INGRID 1946-07-15 09:00:00 TS 16.9500 125.640 main 329 276 P________PPP__ WP061946 16.9500 125.650 100 3 16.9500 125.650 TC 100 16.9500 125.612 4 105 16.9500 125.650 100 952 390 10 276
1946193N13143 1946 38 WP MM INGRID 1946-07-15 12:00:00 TS 17.0000 125.100 main 276 223 O________OOO__ jtwc_wp WP061946 17.0000 125.100 100 3 17.0000 125.100 TC 100 17.0000 125.100 4 100 17.0000 125.100 100 957 360 10 275
1946193N13143 1946 38 WP MM INGRID 1946-07-15 15:00:00 TS 17.0448 124.588 main 223 170 P________PPP__ WP061946 17.0499 124.577 100 3 17.0499 124.577 TC 100 17.0293 124.620 4 100 17.0499 124.577 100 958 360 9 275
1946193N13143 1946 38 WP MM INGRID 1946-07-15 18:00:00 TS 17.0905 124.115 main 170 128 O________OPO__ jtwc_wp WP061946 17.1000 124.100 100 3 17.1000 124.100 TC 100 17.0620 124.162 4 100 17.1000 124.100 100 960 360 9 276
1946193N13143 1946 38 WP MM INGRID 1946-07-15 21:00:00 TS 17.1296 123.689 main 128 87 P________PPP__ WP061946 17.1349 123.677 100 3 17.1349 123.677 TC 100 17.1137 123.723 4 100 17.1349 123.677 100 960 390 8 278
1946193N13143 1946 38 WP MM INGRID 1946-07-16 00:00:00 TS 17.2000 123.300 main 87 62 O________OOO__ jtwc_wp WP061946 17.2000 123.300 100 3 17.2000 123.300 TC 100 17.2000 123.300 4 100 17.2000 123.300 100 961 420 7 285
1946193N13143 1946 38 WP MM INGRID 1946-07-16 03:00:00 TS 17.3250 122.943 main 53 30 P________PPP__ WP061946 17.3273 122.957 97 3 17.3273 122.957 TC 97 17.3181 122.902 4 97 17.3273 122.957 97 961 420 7 293
1946193N13143 1946 38 WP MM INGRID 1946-07-16 06:00:00 TS 17.4935 122.579 main 30 10 O________OPO__ jtwc_wp WP061946 17.5000 122.600 95 2 17.5000 122.600 TC 95 17.4741 122.514 4 95 17.5000 122.600 95 962 420 8 295
1946193N13143 1946 38 WP MM INGRID 1946-07-16 09:00:00 TS 17.6751 122.159 main 10 0 P________PPP__ WP061946 17.6774 122.172 92 2 17.6774 122.172 TC 92 17.6681 122.120 4 92 17.6774 122.172 92 961 390 9 296
1946193N13143 1946 38 WP MM INGRID 1946-07-16 12:00:00 TS 17.9000 121.700 main 0 0 O________OOO__ jtwc_wp WP061946 17.9000 121.700 90 2 17.9000 121.700 TC 90 17.9000 121.700 4 90 17.9000 121.700 90 961 360 10 299
1946193N13143 1946 38 WP MM INGRID 1946-07-16 15:00:00 TS 18.1757 121.208 main 0 0 P________PPP__ WP061946 18.1849 121.207 90 2 18.1849 121.207 TC 90 18.1481 121.209 4 90 18.1849 121.207 90 960 360 11 301
1946193N13143 1946 38 WP MM INGRID 1946-07-16 18:00:00 TS 18.4832 120.698 main 10 10 O________OPO__ jtwc_wp WP061946 18.5000 120.700 90 2 18.5000 120.700 TC 90 18.4330 120.693 4 90 18.5000 120.700 90 960 360 11 302
1946193N13143 1946 38 WP MM INGRID 1946-07-16 21:00:00 TS 18.7766 120.184 main 61 61 P________PPP__ WP061946 18.7850 120.185 90 2 18.7850 120.185 TC 90 18.7513 120.180 4 90 18.7850 120.185 90 959 330 11 303
1946193N13143 1946 38 WP MM INGRID 1946-07-17 00:00:00 TS 19.1000 119.700 main 122 122 O________OOO__ jtwc_wp WP061946 19.1000 119.700 90 2 19.1000 119.700 TC 90 19.1000 119.700 4 90 19.1000 119.700 90 959 300 11 310
1946193N13143 1946 38 WP MM INGRID 1946-07-17 03:00:00 TS 19.4823 119.281 main 183 183 P________PPP__ WP061946 19.4849 119.277 90 2 19.4849 119.277 TC 90 19.4746 119.293 4 90 19.4849 119.277 90 959 330 11 317
1946193N13143 1946 38 WP MM INGRID 1946-07-17 06:00:00 TS 19.8941 118.905 main 245 245 O________OPO__ jtwc_wp WP061946 19.9000 118.900 90 2 19.9000 118.900 TC 90 19.8766 118.919 4 90 19.9000 118.900 90 959 360 11 320
1946193N13143 1946 38 WP MM INGRID 1946-07-17 09:00:00 TS 20.2975 118.553 main 281 281 P________PPP__ WP061946 20.2998 118.550 90 2 20.2998 118.550 TC 90 20.2903 118.561 4 90 20.2998 118.550 90 959 330 10 321
1946193N13143 1946 38 WP MM INGRID 1946-07-17 12:00:00 TS 20.7000 118.200 main 291 241 O________OOO__ jtwc_wp WP061946 20.7000 118.200 90 2 20.7000 118.200 TC 90 20.7000 118.200 4 90 20.7000 118.200 90 960 300 11 320
1946193N13143 1946 38 WP MM INGRID 1946-07-17 15:00:00 TS 21.1161 117.820 main 241 181 P________PPP__ WP061946 21.1075 117.807 90 2 21.1075 117.807 TC 90 21.1419 117.856 4 88 21.1075 117.807 90 960 300 11 319
1946193N13143 1946 38 WP MM INGRID 1946-07-17 18:00:00 TS 21.5170 117.425 main 181 127 O________OPO__ jtwc_wp WP061946 21.5000 117.400 90 2 21.5000 117.400 TC 90 21.5680 117.498 4 87 21.5000 117.400 90 960 300 11 318
1946193N13143 1946 38 WP MM INGRID 1946-07-17 21:00:00 TS 21.9103 117.056 main 127 78 P________PPP__ WP061946 21.9020 117.045 87 2 21.9020 117.045 TC 87 21.9353 117.091 4 86 21.9020 117.045 87 960 270 10 312
1946193N13143 1946 38 WP MM INGRID 1946-07-18 00:00:00 TS 22.2000 116.600 main 78 49 O________OOO__ jtwc_wp WP061946 22.2000 116.600 85 2 22.2000 116.600 TC 85 22.2000 116.600 4 85 22.2000 116.600 85 961 240 11 292
1946193N13143 1946 38 WP MM INGRID 1946-07-18 03:00:00 TS 22.3155 115.959 main 49 44 P________PPP__ WP061946 22.3102 115.945 85 2 22.3102 115.945 TC 85 22.3315 116.002 4 85 22.3102 115.945 85 961 240 13 275
1946193N13143 1946 38 WP MM INGRID 1946-07-18 06:00:00 TS 22.3103 115.223 main 38 22 O________OPO__ jtwc_wp WP061946 22.3000 115.200 85 2 22.3000 115.200 TC 85 22.3516 115.315 4 85 22.3000 115.200 85 962 240 13 268
1946193N13143 1946 38 WP MM INGRID 1946-07-18 09:00:00 TS 22.2754 114.523 main 15 0 P________PPP__ WP061946 22.2720 114.515 85 2 22.2720 114.515 TC 85 22.2958 114.572 4 85 22.2720 114.515 85 963 240 13 265
1946193N13143 1946 38 WP MM INGRID 1946-07-18 12:00:00 TS 22.2000 113.800 main 24 0 O________OOO__ jtwc_wp WP061946 22.2000 113.800 85 2 22.2000 113.800 TC 85 22.2000 113.800 4 85 22.2000 113.800 85 964 240 15 262
1946193N13143 1946 38 WP MM INGRID 1946-07-18 15:00:00 TS 22.0659 112.932 main 0 0 P________P_P__ WP061946 22.0559 112.909 82 1 22.0559 112.909 TC 82 4 22.1060 113.020 82 965 270 15 262
1946193N13143 1946 38 WP MM INGRID 1946-07-18 18:00:00 TS 22.0000 112.200 main 0 0 O________O_O__ jtwc_wp WP061946 22.0000 112.200 80 1 22.0000 112.200 TC 80 4 22.0000 112.200 80 967 300 9 274
1946193N13143 1946 38 WP MM INGRID 1946-07-18 21:00:00 TS 22.1218 111.965 main 0 0 P________P____ WP061946 22.1218 111.965 67 1 22.1218 111.965 TC 67 4 5 340
1946193N13143 1946 38 WP MM INGRID 1946-07-19 00:00:00 TS 22.5000 112.000 main 0 0 O________O____ jtwc_wp WP061946 22.5000 112.000 55 0 22.5000 112.000 TC 55 11 6
1946193N13143 1946 38 WP MM INGRID 1946-07-19 03:00:00 TS 23.1751 112.077 main 0 0 P________P____ WP061946 23.1751 112.077 47 0 23.1751 112.077 TC 47 15 7
1946193N13143 1946 38 WP MM INGRID 1946-07-19 06:00:00 TS 24.0000 112.200 main 0 0 O________O____ jtwc_wp WP061946 24.0000 112.200 40 0 24.0000 112.200 TC 40 16 5
1946193N13143 1946 38 WP MM INGRID 1946-07-19 09:00:00 TS 24.7873 112.213 main 0 0 P________P____ WP061946 24.7873 112.213 37 0 24.7873 112.213 TC 37 15 3
1946193N13143 1946 38 WP MM INGRID 1946-07-19 12:00:00 TS 25.5000 112.300 main 0 0 O________O____ jtwc_wp WP061946 25.5000 112.300 35 0 25.5000 112.300 TC 35 13 18
1946193N13143 1946 38 WP MM INGRID 1946-07-19 15:00:00 TS 26.0379 112.657 main 0 0 P________P____ WP061946 26.0379 112.657 32 -1 26.0379 112.657 TC 32 12 32
1946193N13143 1946 38 WP MM INGRID 1946-07-19 18:00:00 TS 26.5000 113.000 main 0 0 O________O____ jtwc_wp WP061946 26.5000 113.000 30 -1 26.5000 113.000 TC 30 10 22
1946193N13143 1946 38 WP MM INGRID 1946-07-19 21:00:00 TS 26.9873 113.086 main 0 0 P________P____ WP061946 26.9873 113.086 30 -1 26.9873 113.086 TC 30 10 1
1946193N13143 1946 38 WP MM INGRID 1946-07-20 00:00:00 TS 27.5000 113.000 main 0 O________O____ jtwc_wp WP061946 27.5000 113.000 30 -1 27.5000 113.000 TC 30 10 351

デジタル台風データ・検索

IBTrACS Databaseについて

本データベースは、米国NOAAが公開する1842年以降の世界の熱帯低気圧のベストトラックデータアーカイブInternational Best Track Archive for Climate Stewardship (IBTrACS)を、ウェブで閲覧しやすい形式に変換したものです。

最終更新日:2021-10-21